Time;durP1;ratioP1;P1;durP2;ratioP2;P2;SDS_P1;SDS_P2;PMS_P1;PMS_P2;Temp;Humidity;BMP_temperature;BMP_pressure;BME280_temperature;BME280_humidity;BME280_pressure;Samples;Min_cycle;Max_cycle;Signal;HPM_P1;HPM_P2
2022/04/13 00:00:15;;;;;;;15.88;4.95;;;;;;;14.85;80.98;100660.41;7386391;19;20034;-65
2022/04/13 00:02:43;;;;;;;15.60;8.00;;;;;;;14.84;82.20;100660.56;7388578;19;20014;-66
2022/04/13 00:05:10;;;;;;;13.50;5.10;;;;;;;14.80;81.51;100669.91;7385714;19;20413;-65
2022/04/13 00:07:37;;;;;;;10.13;4.68;;;;;;;14.77;81.56;100665.81;7387451;19;20015;-68
2022/04/13 00:10:06;;;;;;;20.17;9.77;;;;;;;14.76;81.98;100666.00;7385577;19;20499;-65
2022/04/13 00:12:32;;;;;;;12.95;5.30;;;;;;;14.75;81.83;100669.63;7387092;19;20010;-65
2022/04/13 00:14:59;;;;;;;13.43;5.07;;;;;;;14.74;81.36;100660.03;7384967;19;20027;-64
2022/04/13 00:17:26;;;;;;;15.55;7.38;;;;;;;14.71;81.81;100669.19;7385737;19;20045;-65
2022/04/13 00:19:53;;;;;;;15.40;5.40;;;;;;;14.73;82.36;100667.16;7385647;19;20014;-68
2022/04/13 00:22:20;;;;;;;8.13;4.90;;;;;;;14.72;82.11;100673.50;7388240;19;20070;-65
2022/04/13 00:24:47;;;;;;;10.35;5.00;;;;;;;14.71;81.96;100676.31;7386513;19;20003;-66
2022/04/13 00:27:14;;;;;;;14.60;7.60;;;;;;;14.71;82.63;100671.00;7386454;19;20014;-65
2022/04/13 00:29:41;;;;;;;18.13;6.28;;;;;;;14.69;82.53;100673.84;7386137;19;20019;-66
2022/04/13 00:32:08;;;;;;;13.30;5.95;;;;;;;14.71;82.22;100684.25;7385045;19;20019;-65
2022/04/13 00:34:35;;;;;;;12.77;5.57;;;;;;;14.70;82.18;100679.97;7386473;19;20011;-65
2022/04/13 00:37:03;;;;;;;17.38;5.65;;;;;;;14.66;82.13;100679.50;7384727;19;20013;-65
2022/04/13 00:39:30;;;;;;;14.35;5.15;;;;;;;14.67;81.95;100677.69;7384419;19;20351;-65
2022/04/13 00:42:03;;;;;;;12.48;6.03;;;;;;;14.64;82.01;100681.50;7382171;19;20029;-65
2022/04/13 00:44:30;;;;;;;22.23;12.20;;;;;;;14.63;82.64;100690.44;7382261;19;20017;-66
2022/04/13 00:47:08;;;;;;;18.63;7.00;;;;;;;14.63;83.03;100687.00;7384204;19;20103;-63
2022/04/13 00:49:36;;;;;;;13.65;5.63;;;;;;;14.60;82.51;100690.84;7387068;19;20081;-65
2022/04/13 00:52:05;;;;;;;10.05;5.57;;;;;;;14.60;82.35;100688.19;7383371;19;20024;-66
2022/04/13 00:54:45;;;;;;;14.63;6.40;;;;;;;14.59;82.54;100697.13;7384522;19;20069;-68
2022/04/13 00:57:15;;;;;;;19.15;5.85;;;;;;;14.61;82.56;100686.38;7385943;19;20031;-65
2022/04/13 00:59:44;;;;;;;10.85;4.97;;;;;;;14.60;82.15;100693.47;7384090;19;20021;-64
2022/04/13 01:02:12;;;;;;;12.35;4.22;;;;;;;14.60;82.10;100700.59;7381848;19;20013;-63
2022/04/13 01:04:40;;;;;;;12.02;4.68;;;;;;;14.60;82.63;100698.78;7381714;19;20019;-62
2022/04/13 01:07:09;;;;;;;11.27;5.03;;;;;;;14.59;82.41;100713.00;7394502;19;20102;-68
2022/04/13 01:09:37;;;;;;;15.18;5.38;;;;;;;14.59;82.03;100713.00;7393597;19;20015;-65
2022/04/13 01:12:04;;;;;;;13.13;5.55;;;;;;;14.58;82.13;100703.41;7388947;19;20110;-66
2022/04/13 01:14:31;;;;;;;11.52;5.20;;;;;;;14.62;83.27;100701.25;7391017;19;20017;-65
2022/04/13 01:17:03;;;;;;;18.00;4.97;;;;;;;14.66;82.53;100715.75;7388671;19;20015;-66
2022/04/13 01:19:31;;;;;;;11.77;4.65;;;;;;;14.61;81.92;100720.78;7391311;19;20027;-65
2022/04/13 01:22:03;;;;;;;14.25;8.40;;;;;;;14.62;82.47;100720.63;7390687;19;20379;-66
2022/04/13 01:24:32;;;;;;;10.02;5.22;;;;;;;14.64;82.61;100723.06;7389814;19;20048;-64
2022/04/13 01:27:03;;;;;;;10.80;4.95;;;;;;;14.63;82.50;100724.88;7393604;19;20011;-67
2022/04/13 01:29:30;;;;;;;12.70;4.93;;;;;;;14.63;82.17;100724.88;7390326;19;20011;-65
2022/04/13 01:31:57;;;;;;;16.50;6.47;;;;;;;14.63;83.11;100721.44;7388508;19;20337;-64
2022/04/13 01:34:24;;;;;;;7.57;4.15;;;;;;;14.62;82.40;100717.13;7390312;19;20378;-64
2022/04/13 01:36:54;;;;;;;11.00;4.22;;;;;;;14.59;82.31;100718.31;7392708;19;20021;-65
2022/04/13 01:39:28;;;;;;;17.20;8.63;;;;;;;14.57;81.94;100719.50;7390699;19;20014;-64
2022/04/13 01:41:55;;;;;;;11.15;4.95;;;;;;;14.59;83.10;100718.31;7390354;19;20021;-65
2022/04/13 01:44:22;;;;;;;12.20;3.85;;;;;;;14.55;81.89;100719.69;7387972;19;20054;-62
2022/04/13 01:46:49;;;;;;;17.33;5.53;;;;;;;14.55;81.99;100717.03;7390465;19;20097;-66
2022/04/13 01:49:16;;;;;;;12.85;4.47;;;;;;;14.55;82.74;100719.69;7396361;19;20010;-66
2022/04/13 01:51:42;;;;;;;10.02;3.70;;;;;;;14.56;82.13;100713.38;7393500;19;20011;-63
2022/04/13 01:54:09;;;;;;;8.48;4.55;;;;;;;14.56;81.69;100716.03;7389087;19;20006;-65
2022/04/13 01:56:36;;;;;;;10.48;3.97;;;;;;;14.59;82.05;100720.13;7393965;19;20445;-67
2022/04/13 01:59:03;;;;;;;8.43;3.40;;;;;;;14.55;81.79;100719.69;7388907;19;20078;-62
2022/04/13 02:01:31;;;;;;;18.10;4.38;;;;;;;14.59;82.79;100718.31;7389690;19;20340;-63
2022/04/13 02:03:58;;;;;;;8.13;3.42;;;;;;;14.63;81.95;100722.22;7389874;19;20028;-64
2022/04/13 02:06:25;;;;;;;18.10;7.78;;;;;;;14.65;81.88;100722.06;7388868;19;20010;-65
2022/04/13 02:08:52;;;;;;;11.32;3.42;;;;;;;14.66;81.97;100721.88;7392865;19;20082;-66
2022/04/13 02:11:18;;;;;;;15.57;6.40;;;;;;;14.65;81.37;100725.53;7388448;19;20018;-67
2022/04/13 02:13:45;;;;;;;9.10;3.95;;;;;;;14.66;82.17;100719.25;7388498;19;20006;-66
2022/04/13 02:16:13;;;;;;;14.55;4.30;;;;;;;14.64;81.41;100723.06;7388732;19;20010;-65
2022/04/13 02:18:40;;;;;;;10.65;4.43;;;;;;;14.56;81.01;100731.94;7387551;19;20033;-65
2022/04/13 02:21:07;;;;;;;11.50;4.55;;;;;;;14.52;81.61;100735.94;7390269;19;20017;-63
2022/04/13 02:23:34;;;;;;;16.38;5.85;;;;;;;14.48;82.11;100729.34;7387559;19;20086;-65
2022/04/13 02:26:02;;;;;;;11.45;4.70;;;;;;;14.46;82.91;100718.94;7391261;19;20114;-66
2022/04/13 02:28:31;;;;;;;12.20;4.20;;;;;;;14.47;82.12;100738.31;7388442;19;20010;-66
2022/04/13 02:30:58;;;;;;;11.15;5.25;;;;;;;14.48;82.89;100730.16;7388475;19;20137;-67
2022/04/13 02:33:25;;;;;;;10.32;4.05;;;;;;;14.50;82.38;100735.28;7387731;19;20045;-63
2022/04/13 02:35:52;;;;;;;12.23;5.20;;;;;;;14.51;83.60;100729.81;7388100;19;20013;-66
2022/04/13 02:38:19;;;;;;;14.88;4.55;;;;;;;14.53;82.95;100737.56;7387498;19;20018;-63
2022/04/13 02:40:45;;;;;;;10.18;4.25;;;;;;;14.53;82.13;100733.09;7388997;19;20082;-66
2022/04/13 02:43:12;;;;;;;15.32;7.90;;;;;;;14.52;82.50;100739.41;7391724;19;20236;-63
2022/04/13 02:45:39;;;;;;;16.48;4.97;;;;;;;14.51;82.75;100737.75;7388668;19;20038;-65
2022/04/13 02:48:07;;;;;;;10.18;4.68;;;;;;;14.49;82.31;100728.34;7387690;19;20014;-66
2022/04/13 02:50:35;;;;;;;9.77;3.90;;;;;;;14.47;82.31;100736.50;7389873;19;20015;-64
2022/04/13 02:53:01;;;;;;;19.48;7.15;;;;;;;14.47;82.23;100739.13;7387390;19;20020;-66
2022/04/13 02:55:29;;;;;;;10.85;4.47;;;;;;;14.48;83.13;100734.63;7388486;19;20010;-66
2022/04/13 02:57:56;;;;;;;12.15;4.28;;;;;;;14.50;82.27;100737.94;7387677;19;20015;-64
2022/04/13 03:00:23;;;;;;;8.35;3.85;;;;;;;14.48;82.40;100747.88;7388959;19;20725;-63
2022/04/13 03:02:49;;;;;;;12.95;4.47;;;;;;;14.46;82.11;100748.06;7389709;19;20021;-64
2022/04/13 03:05:16;;;;;;;10.82;4.03;;;;;;;14.46;82.26;100750.72;7384853;19;20007;-66
2022/04/13 03:07:43;;;;;;;8.68;3.70;;;;;;;14.49;82.74;100758.28;7389488;19;20025;-64
2022/04/13 03:10:11;;;;;;;10.48;4.07;;;;;;;14.53;82.58;100748.16;7387054;19;20021;-65
2022/04/13 03:12:38;;;;;;;10.10;3.72;;;;;;;14.56;82.22;100750.47;7389487;19;20014;-65
2022/04/13 03:15:09;;;;;;;14.63;3.90;;;;;;;14.53;81.97;100751.63;7388947;19;20011;-66
2022/04/13 03:17:36;;;;;;;8.02;3.72;;;;;;;14.51;81.83;100748.34;7386529;19;20030;-67
2022/04/13 03:20:05;;;;;;;11.05;4.50;;;;;;;14.52;81.94;100757.94;7386394;19;20030;-65
2022/04/13 03:22:32;;;;;;;9.98;4.15;;;;;;;14.52;82.02;100752.66;7386687;19;20437;-69
2022/04/13 03:25:00;;;;;;;13.50;4.47;;;;;;;14.54;81.82;100760.41;7386933;19;20010;-66
2022/04/13 03:27:27;;;;;;;11.02;3.80;;;;;;;14.57;81.56;100759.22;7390446;19;20334;-65
2022/04/13 03:29:54;;;;;;;11.50;3.72;;;;;;;14.54;81.79;100763.03;7388308;19;20018;-64
2022/04/13 03:32:20;;;;;;;16.08;7.95;;;;;;;14.52;82.05;100762.44;7386432;19;20011;-65
2022/04/13 03:34:47;;;;;;;10.38;4.07;;;;;;;14.57;82.76;100769.81;7387946;19;20011;-64
2022/04/13 03:37:14;;;;;;;9.65;4.10;;;;;;;14.58;81.84;100769.63;7388033;19;20049;-63
2022/04/13 03:39:41;;;;;;;11.88;4.18;;;;;;;14.58;82.05;100764.31;7389124;19;20086;-66
2022/04/13 03:42:08;;;;;;;11.93;3.65;;;;;;;14.59;81.78;100767.78;7385348;19;20013;-65
2022/04/13 03:44:35;;;;;;;14.32;6.18;;;;;;;14.61;81.86;100771.94;7383235;19;20030;-66
2022/04/13 03:47:02;;;;;;;11.05;3.90;;;;;;;14.63;82.14;100775.19;7384608;19;20091;-65
2022/04/13 03:49:29;;;;;;;9.02;3.47;;;;;;;14.64;82.06;100770.72;7385393;19;20022;-66
2022/04/13 03:51:56;;;;;;;11.27;4.00;;;;;;;14.64;81.76;100773.38;7388415;19;20012;-68
2022/04/13 03:54:23;;;;;;;9.20;3.80;;;;;;;14.62;81.45;100770.94;7385369;19;20018;-64
2022/04/13 03:56:50;;;;;;;8.30;3.47;;;;;;;14.58;81.41;100769.63;7390066;19;20011;-66
2022/04/13 03:59:18;;;;;;;10.70;3.65;;;;;;;14.57;82.13;100772.47;7385488;19;20017;-66
2022/04/13 04:01:45;;;;;;;7.28;3.22;;;;;;;14.55;81.72;100783.22;7387217;19;20025;-64
2022/04/13 04:04:12;;;;;;;10.75;3.55;;;;;;;14.54;81.55;100773.63;7384759;19;20082;-64
2022/04/13 04:06:39;;;;;;;10.05;3.78;;;;;;;14.53;81.82;100778.09;7388306;19;20034;-65
2022/04/13 04:09:06;;;;;;;9.98;3.80;;;;;;;14.54;82.53;100779.75;7388438;19;20013;-64
2022/04/13 04:11:33;;;;;;;7.32;3.20;;;;;;;14.55;81.98;100773.47;7385025;19;20020;-66
2022/04/13 04:14:00;;;;;;;9.95;3.45;;;;;;;14.54;81.73;100769.16;7383289;19;20007;-66
2022/04/13 04:16:27;;;;;;;12.70;2.90;;;;;;;14.55;81.75;100780.59;7385101;19;20013;-66
2022/04/13 04:18:54;;;;;;;11.82;4.10;;;;;;;14.59;83.90;100776.56;7389844;19;20445;-67
2022/04/13 04:21:21;;;;;;;6.97;2.55;;;;;;;14.61;82.08;100773.75;7384946;19;20003;-65
2022/04/13 04:23:48;;;;;;;8.77;3.10;;;;;;;14.60;81.64;100772.94;7386589;19;20113;-65
2022/04/13 04:26:15;;;;;;;12.98;3.97;;;;;;;14.59;82.03;100779.22;7388465;19;20022;-66
2022/04/13 04:28:42;;;;;;;10.25;4.25;;;;;;;14.58;82.12;100777.56;7387048;19;20440;-64
2022/04/13 04:31:09;;;;;;;11.25;4.22;;;;;;;14.55;81.91;100778.75;7384990;19;20119;-67
2022/04/13 04:33:36;;;;;;;13.02;4.60;;;;;;;14.60;83.09;100783.50;7385935;19;20025;-67
2022/04/13 04:36:06;;;;;;;8.70;3.60;;;;;;;14.62;82.29;100784.19;7386000;19;20659;-66
2022/04/13 04:38:39;;;;;;;13.40;5.82;;;;;;;14.64;82.59;100784.78;7384522;19;20043;-65
2022/04/13 04:41:07;;;;;;;12.68;4.22;;;;;;;14.67;82.38;100783.63;7388393;19;20434;-65
2022/04/13 04:43:34;;;;;;;11.55;4.57;;;;;;;14.66;81.58;100788.09;7393094;19;20081;-65
2022/04/13 04:46:03;;;;;;;10.50;4.65;;;;;;;14.66;81.98;100790.75;7391544;19;20579;-66
2022/04/13 04:48:34;;;;;;;8.20;3.72;;;;;;;14.69;81.71;100803.63;7391690;19;20621;-65
2022/04/13 04:51:01;;;;;;;13.45;4.13;;;;;;;14.69;81.50;100798.31;7395193;19;20119;-65
2022/04/13 04:53:28;;;;;;;10.40;5.13;;;;;;;14.70;81.59;100804.44;7392210;19;20003;-65
2022/04/13 04:55:57;;;;;;;9.50;4.70;;;;;;;14.65;81.28;100802.34;7393347;19;20514;-67
2022/04/13 04:58:27;;;;;;;14.10;5.20;;;;;;;14.65;82.50;100804.16;7392134;19;20010;-66
2022/04/13 05:00:57;;;;;;;10.95;4.20;;;;;;;14.63;82.04;100806.19;7392556;19;20018;-65
2022/04/13 05:03:24;;;;;;;14.38;5.65;;;;;;;14.62;82.41;100807.19;7389651;19;20015;-66
2022/04/13 05:05:55;;;;;;;14.55;6.20;;;;;;;14.60;81.83;100811.81;7393108;19;20018;-63
2022/04/13 05:08:26;;;;;;;14.38;6.43;;;;;;;14.57;81.60;100806.91;7389454;19;20027;-66
2022/04/13 05:10:53;;;;;;;12.90;5.05;;;;;;;14.54;82.23;100810.72;7390289;19;20018;-67
2022/04/13 05:13:20;;;;;;;11.60;4.35;;;;;;;14.55;82.21;100815.00;7390893;19;20066;-65
2022/04/13 05:15:47;;;;;;;9.80;5.03;;;;;;;14.55;83.57;100815.00;7391242;19;20425;-64
2022/04/13 05:18:14;;;;;;;11.30;4.60;;;;;;;14.55;82.55;100820.31;7392000;19;20130;-67
2022/04/13 05:20:41;;;;;;;18.35;7.82;;;;;;;14.57;83.06;100830.72;7393625;19;20028;-69
2022/04/13 05:23:08;;;;;;;16.33;5.70;;;;;;;14.53;83.21;100831.06;7392327;19;20062;-65
2022/04/13 05:25:35;;;;;;;11.18;4.88;;;;;;;14.49;82.50;100831.59;7391011;19;20332;-64
2022/04/13 05:28:02;;;;;;;13.98;6.20;;;;;;;14.48;82.63;100835.25;7391839;19;20102;-67
2022/04/13 05:30:29;;;;;;;13.90;5.63;;;;;;;14.49;83.53;100834.25;7388492;19;20042;-65
2022/04/13 05:32:58;;;;;;;12.07;5.22;;;;;;;14.49;82.52;100840.38;7392887;19;20686;-65
2022/04/13 05:35:26;;;;;;;13.77;5.00;;;;;;;14.50;82.77;100846.50;7390719;19;20011;-66
2022/04/13 05:37:56;;;;;;;13.68;5.20;;;;;;;14.48;82.49;100854.59;7390642;19;20003;-67
2022/04/13 05:40:24;;;;;;;12.00;4.82;;;;;;;14.47;82.41;100845.03;7390845;19;20023;-65
2022/04/13 05:42:53;;;;;;;11.30;4.55;;;;;;;14.48;82.43;100840.53;7393140;19;20010;-65
2022/04/13 05:45:20;;;;;;;12.80;4.97;;;;;;;14.46;82.50;100848.69;7389753;19;20006;-64
2022/04/13 05:47:47;;;;;;;14.52;4.57;;;;;;;14.46;82.77;100853.16;7390345;19;20407;-64
2022/04/13 05:50:14;;;;;;;11.98;4.80;;;;;;;14.45;82.86;100864.75;7393050;19;20040;-64
2022/04/13 05:52:43;;;;;;;10.90;5.07;;;;;;;14.45;82.95;100864.75;7389316;19;20038;-64
2022/04/13 05:55:10;;;;;;;13.40;4.82;;;;;;;14.44;83.08;100868.38;7391804;19;20019;-67
2022/04/13 05:57:37;;;;;;;13.98;5.28;;;;;;;14.47;83.78;100870.69;7391694;19;20019;-65
2022/04/13 06:00:06;;;;;;;15.77;5.13;;;;;;;14.53;83.41;100876.09;7389945;19;20516;-65
2022/04/13 06:02:35;;;;;;;14.25;5.38;;;;;;;14.55;82.70;100886.50;7393759;19;20090;-64
2022/04/13 06:05:04;;;;;;;13.38;4.90;;;;;;;14.57;82.44;100881.03;7387598;19;20551;-65
2022/04/13 06:07:31;;;;;;;15.10;4.53;;;;;;;14.59;82.48;100893.09;7388878;19;20010;-67
2022/04/13 06:10:05;;;;;;;14.20;5.10;;;;;;;14.62;82.82;100895.41;7388975;19;20090;-65
2022/04/13 06:12:33;;;;;;;13.85;5.38;;;;;;;14.68;82.36;100902.63;7393825;19;20018;-65
2022/04/13 06:15:11;;;;;;;15.20;5.45;;;;;;;14.72;82.25;100909.22;7388700;19;20015;-66
2022/04/13 06:17:38;;;;;;;13.85;4.97;;;;;;;14.74;81.80;100906.38;7392051;19;20622;-67
2022/04/13 06:20:06;;;;;;;17.27;5.70;;;;;;;14.77;81.82;100906.03;7388390;19;20007;-65
2022/04/13 06:22:41;;;;;;;19.33;9.18;;;;;;;14.82;81.94;100916.94;7385956;19;20017;-67
2022/04/13 06:25:10;;;;;;;14.63;5.57;;;;;;;14.86;82.55;100912.91;7388377;19;20006;-66
2022/04/13 06:27:40;;;;;;;14.70;4.85;;;;;;;14.90;81.66;100916.84;7390895;19;20023;-68
2022/04/13 06:30:08;;;;;;;17.77;6.43;;;;;;;14.93;81.46;100919.97;7389527;19;20018;-67
2022/04/13 06:32:38;;;;;;;11.90;5.35;;;;;;;14.94;81.22;100926.91;7387871;19;20015;-63
2022/04/13 06:35:07;;;;;;;16.88;6.10;;;;;;;14.95;81.53;100933.88;7391724;19;20123;-62
2022/04/13 06:37:47;;;;;;;18.70;6.30;;;;;;;14.98;81.29;100933.50;7389229;19;20010;-69
2022/04/13 06:40:14;;;;;;;13.38;6.00;;;;;;;15.05;81.21;100932.78;7386649;19;20057;-66
2022/04/13 06:42:42;;;;;;;19.35;5.93;;;;;;;15.09;81.21;100931.41;7389161;19;20054;-66
2022/04/13 06:45:11;;;;;;;15.18;6.63;;;;;;;15.19;81.00;100932.81;7386305;19;20044;-64
2022/04/13 06:47:39;;;;;;;14.85;6.22;;;;;;;15.35;80.82;100932.66;7389739;19;20015;-67
2022/04/13 06:50:08;;;;;;;13.13;5.32;;;;;;;15.51;79.49;100942.31;7387435;19;20452;-65
2022/04/13 06:52:37;;;;;;;15.85;6.25;;;;;;;15.62;79.14;100947.16;7387497;19;20074;-66
2022/04/13 06:55:05;;;;;;;14.88;4.60;;;;;;;15.60;78.99;100945.69;7391165;19;20019;-66
2022/04/13 06:57:37;;;;;;;18.58;6.80;;;;;;;15.64;81.57;100954.94;7390223;19;20089;-65
2022/04/13 07:00:05;;;;;;;;;;;;;;;15.65;79.42;100961.88;7386989;19;20011;-64
2022/04/13 07:02:34;;;;;;;19.63;7.50;;;;;;;15.60;78.49;100962.44;7388755;19;19911;-68
2022/04/13 07:05:21;;;;;;;18.80;7.40;;;;;;;15.57;79.36;100975.25;7385988;19;20107;-69
2022/04/13 07:07:48;;;;;;;15.48;6.88;;;;;;;15.57;79.02;100964.63;7387634;19;20011;-63
2022/04/13 07:10:14;;;;;;;15.10;5.97;;;;;;;15.57;78.91;100964.63;7384713;19;20018;-67
2022/04/13 07:13:01;;;;;;;15.15;6.22;;;;;;;15.60;78.73;100973.03;7385623;19;20015;-65
2022/04/13 07:15:29;;;;;;;20.85;11.63;;;;;;;15.65;79.27;100970.66;7387179;19;20102;-67
2022/04/13 07:17:57;;;;;;;16.38;6.47;;;;;;;15.70;79.18;100981.56;7389061;19;20017;-69
2022/04/13 07:20:24;;;;;;;13.88;4.85;;;;;;;15.73;78.13;100983.88;7387120;19;20456;-66
2022/04/13 07:22:53;;;;;;;18.38;7.90;;;;;;;15.81;79.16;100977.63;7389831;19;20372;-67
2022/04/13 07:25:21;;;;;;;16.80;6.32;;;;;;;15.85;78.04;100978.09;7387629;19;20440;-65
2022/04/13 07:27:48;;;;;;;12.98;6.13;;;;;;;15.91;77.73;100980.81;7389857;19;20138;-65
2022/04/13 07:30:16;;;;;;;15.40;6.05;;;;;;;16.03;77.84;100983.84;7389704;19;20135;-68
2022/04/13 07:32:45;;;;;;;19.00;6.65;;;;;;;16.10;76.80;100982.13;7386192;19;20085;-66
2022/04/13 07:35:13;;;;;;;12.40;5.97;;;;;;;16.24;77.47;100983.91;7387408;19;20347;-66
2022/04/13 07:37:44;;;;;;;15.23;5.68;;;;;;;16.29;76.50;100994.81;7387039;19;20017;-67
2022/04/13 07:40:17;;;;;;;13.82;7.75;;;;;;;16.37;77.13;101002.66;7390051;19;20018;-66
2022/04/13 07:42:46;;;;;;;14.55;5.50;;;;;;;16.41;76.70;101001.28;7387146;19;20043;-64
2022/04/13 07:45:13;;;;;;;12.05;5.10;;;;;;;16.38;75.69;100995.50;7386912;19;20613;-67
2022/04/13 07:47:41;;;;;;;16.35;6.13;;;;;;;16.34;75.64;101005.69;7386605;19;20484;-67
2022/04/13 07:50:12;;;;;;;11.90;5.10;;;;;;;16.39;75.50;101007.78;7387539;19;20006;-65
2022/04/13 07:52:41;;;;;;;11.73;4.70;;;;;;;16.50;78.57;101016.13;7386913;19;20007;-65
2022/04/13 07:55:10;;;;;;;15.38;5.25;;;;;;;16.57;76.47;101010.84;7388018;19;20340;-65
2022/04/13 07:57:40;;;;;;;11.98;4.43;;;;;;;16.60;75.53;101014.00;7389006;19;20010;-66
2022/04/13 08:00:09;;;;;;;16.55;5.57;;;;;;;16.50;74.94;101020.59;7387838;19;20030;-64
2022/04/13 08:02:39;;;;;;;10.18;5.15;;;;;;;16.52;75.83;101015.91;7385231;19;20379;-69
2022/04/13 08:05:07;;;;;;;13.10;6.25;;;;;;;16.51;75.52;101015.06;7385570;19;20453;-64
2022/04/13 08:07:34;;;;;;;12.98;4.95;;;;;;;16.51;75.47;101030.19;7384152;19;20042;-67
2022/04/13 08:10:02;;;;;;;11.40;5.28;;;;;;;16.55;75.28;101024.34;7386752;19;20011;-66
2022/04/13 08:12:30;;;;;;;13.15;7.13;;;;;;;16.60;74.97;101029.13;7386240;19;20053;-66
2022/04/13 08:14:58;;;;;;;14.45;6.30;;;;;;;16.66;76.05;101029.19;7384202;19;20023;-66
2022/04/13 08:17:26;;;;;;;11.43;4.40;;;;;;;16.72;74.58;101026.78;7388557;19;20078;-66
2022/04/13 08:19:53;;;;;;;11.13;4.57;;;;;;;16.72;74.30;101030.28;7386110;19;20022;-67
2022/04/13 08:22:25;;;;;;;10.77;4.22;;;;;;;16.77;74.87;101025.22;7385272;19;20444;-65
2022/04/13 08:24:52;;;;;;;12.27;4.60;;;;;;;16.83;73.96;101028.97;7386545;19;20027;-68
2022/04/13 08:27:19;;;;;;;7.28;3.50;;;;;;;16.86;74.21;101033.91;7387061;19;20022;-65
2022/04/13 08:29:46;;;;;;;8.95;3.92;;;;;;;16.88;74.20;101035.34;7387499;19;20333;-66
2022/04/13 08:32:19;;;;;;;11.60;3.67;;;;;;;16.92;73.00;101041.09;7384946;19;20030;-66
2022/04/13 08:34:49;;;;;;;11.18;2.63;;;;;;;16.92;72.37;101043.78;7386329;19;20021;-66
2022/04/13 08:37:16;;;;;;;10.02;2.60;;;;;;;16.86;72.94;101044.53;7387601;19;20414;-68
2022/04/13 08:39:43;;;;;;;15.00;3.95;;;;;;;16.90;72.77;101051.94;7384585;19;20022;-66
2022/04/13 08:42:17;;;;;;;8.75;3.90;;;;;;;16.96;72.78;101059.19;7387582;19;20015;-65
2022/04/13 08:44:53;;;;;;;7.57;1.98;;;;;;;16.99;72.25;101068.59;7386347;19;20018;-64
2022/04/13 08:47:24;;;;;;;8.18;2.22;;;;;;;17.04;72.02;101075.00;7387170;19;20091;-65
2022/04/13 08:49:52;;;;;;;7.20;2.13;;;;;;;17.04;71.74;101071.50;7386784;19;20309;-65
2022/04/13 08:52:35;;;;;;;17.88;5.63;;;;;;;17.10;71.00;101079.56;7386850;19;20393;-64
2022/04/13 08:55:05;;;;;;;8.23;3.92;;;;;;;17.19;71.77;101087.41;7383542;19;20017;-65
2022/04/13 08:57:41;;;;;;;11.25;3.15;;;;;;;17.29;71.93;101087.91;7389357;19;20024;-66
2022/04/13 09:00:17;;;;;;;9.35;2.10;;;;;;;17.30;70.28;101094.91;7389313;19;20360;-66
2022/04/13 09:03:14;;;;;;;6.97;2.53;;;;;;;17.31;69.99;101096.56;7384731;19;20037;-66
2022/04/13 09:05:54;;;;;;;8.10;1.65;;;;;;;17.34;70.56;101098.81;7382430;19;20034;-65
2022/04/13 09:08:35;;;;;;;8.48;1.65;;;;;;;17.33;69.63;101100.66;7383592;19;20109;-65
2022/04/13 09:11:04;;;;;;;5.97;2.20;;;;;;;17.37;69.80;101099.25;7381458;19;20657;-66
2022/04/13 09:13:34;;;;;;;7.78;2.17;;;;;;;17.42;69.94;101107.47;7384755;19;20022;-66
2022/04/13 09:16:04;;;;;;;6.78;2.28;;;;;;;17.47;70.13;101115.72;7384159;19;20017;-64
2022/04/13 09:18:38;;;;;;;8.50;2.22;;;;;;;17.51;69.93;101117.00;7385311;19;20019;-65
2022/04/13 09:21:05;;;;;;;7.18;1.70;;;;;;;17.60;70.81;101106.25;7385700;19;20017;-68
2022/04/13 09:23:32;;;;;;;8.50;1.48;;;;;;;17.69;68.65;101124.56;7383799;19;20390;-68
2022/04/13 09:26:00;;;;;;;4.18;1.02;;;;;;;17.68;67.69;101114.09;7385419;19;20027;-66
2022/04/13 09:28:28;;;;;;;7.78;1.27;;;;;;;17.60;68.06;101124.88;7390411;19;20042;-68
2022/04/13 09:30:55;;;;;;;4.38;1.08;;;;;;;17.59;68.64;101134.69;7390878;19;20011;-64
2022/04/13 09:33:23;;;;;;;8.98;1.60;;;;;;;17.62;69.31;101131.66;7390795;19;20500;-63
2022/04/13 09:35:50;;;;;;;5.20;1.10;;;;;;;17.67;68.74;101128.44;7388766;19;20015;-63
2022/04/13 09:38:19;;;;;;;8.32;1.95;;;;;;;17.76;68.06;101135.25;7387751;19;20078;-67
2022/04/13 09:40:48;;;;;;;4.97;1.10;;;;;;;17.77;67.83;101132.41;7389297;19;20341;-65
2022/04/13 09:43:17;;;;;;;4.70;1.17;;;;;;;17.86;67.27;101127.78;7390859;19;20018;-68
2022/04/13 09:45:50;;;;;;;10.15;1.27;;;;;;;17.95;67.56;101134.59;7389202;19;20014;-66
2022/04/13 09:48:23;;;;;;;8.30;0.82;;;;;;;17.99;66.92;101132.34;7393347;19;20139;-66
2022/04/13 09:50:51;;;;;;;3.65;0.82;;;;;;;17.94;67.20;101135.59;7389150;19;20187;-67
2022/04/13 09:53:20;;;;;;;3.60;0.70;;;;;;;17.96;67.07;101141.56;7391342;19;20035;-68
2022/04/13 09:55:53;;;;;;;4.53;0.88;;;;;;;18.01;66.97;101127.66;7391500;19;20022;-65
2022/04/13 09:58:25;;;;;;;4.63;0.70;;;;;;;18.08;66.99;101128.56;7390170;19;20011;-65
2022/04/13 10:01:00;;;;;;;5.07;0.55;;;;;;;18.15;65.07;101137.41;7388903;19;20014;-66
2022/04/13 10:03:30;;;;;;;3.17;0.60;;;;;;;18.20;65.51;101134.97;7389836;19;20093;-67
2022/04/13 10:06:03;;;;;;;3.92;0.60;;;;;;;18.24;65.01;101142.38;7384558;19;20042;-66
2022/04/13 10:08:36;;;;;;;5.22;0.80;;;;;;;18.29;65.33;101145.28;7388400;19;20015;-67
2022/04/13 10:11:08;;;;;;;4.00;1.05;;;;;;;18.33;64.71;101141.22;7386898;19;20014;-65
2022/04/13 10:13:43;;;;;;;8.27;0.93;;;;;;;18.36;64.48;101138.16;7386390;19;20444;-64
2022/04/13 10:16:14;;;;;;;4.72;0.68;;;;;;;18.42;64.05;101141.88;7388060;19;20385;-65
2022/04/13 10:18:58;;;;;;;5.50;0.80;;;;;;;18.47;64.00;101150.13;7389326;19;20050;-66
2022/04/13 10:21:43;;;;;;;6.10;0.70;;;;;;;18.51;63.68;101147.88;7388564;19;20010;-66
2022/04/13 10:24:23;;;;;;;5.40;0.80;;;;;;;18.57;64.56;101145.28;7387961;19;20011;-67
2022/04/13 10:27:03;;;;;;;3.50;0.70;;;;;;;18.63;63.99;101146.34;7389430;19;20022;-66
2022/04/13 10:29:33;;;;;;;5.13;0.93;;;;;;;18.65;63.09;101153.09;7387723;19;20013;-64
2022/04/13 10:32:06;;;;;;;6.15;1.80;;;;;;;18.72;64.53;101161.97;7388068;19;20090;-66
2022/04/13 10:34:36;;;;;;;4.22;0.60;;;;;;;18.78;63.17;101158.50;7392063;19;20439;-64
2022/04/13 10:37:05;;;;;;;5.50;0.70;;;;;;;18.84;62.57;101164.09;7388031;19;20078;-66
2022/04/13 10:39:32;;;;;;;5.07;0.60;;;;;;;18.86;62.82;101159.34;7386375;19;20420;-67
2022/04/13 10:42:09;;;;;;;2.78;0.85;;;;;;;18.90;61.94;101160.59;7387603;19;20029;-65
2022/04/13 10:44:47;;;;;;;3.88;0.55;;;;;;;18.93;61.71;101163.72;7387412;19;20021;-65
2022/04/13 10:47:19;;;;;;;3.10;0.80;;;;;;;18.92;61.83;101166.56;7385721;19;20430;-64
2022/04/13 10:49:45;;;;;;;3.70;0.50;;;;;;;18.91;61.97;101159.56;7388351;19;20447;-66
2022/04/13 10:52:48;;;;;;;4.90;0.80;;;;;;;18.90;61.65;101156.09;7387196;19;20018;-66
2022/04/13 10:55:17;;;;;;;4.20;1.10;;;;;;;18.83;61.43;101157.91;7388081;19;20032;-66
2022/04/13 10:57:57;;;;;;;4.97;0.80;;;;;;;18.79;62.03;101162.81;7391268;19;20094;-68
2022/04/13 11:00:27;;;;;;;8.05;1.17;;;;;;;18.78;61.33;101160.34;7387381;19;20311;-64
2022/04/13 11:03:04;;;;;;;4.20;0.77;;;;;;;18.79;61.73;101149.47;7385417;19;20133;-64
2022/04/13 11:05:33;;;;;;;3.30;0.50;;;;;;;18.83;61.38;101170.44;7384344;19;20332;-68
2022/04/13 11:08:16;;;;;;;2.58;0.50;;;;;;;18.87;61.06;101161.00;7388826;19;20464;-68
2022/04/13 11:10:47;;;;;;;3.95;0.77;;;;;;;19.00;62.03;101161.03;7385671;19;20141;-66
2022/04/13 11:13:16;;;;;;;4.72;0.60;;;;;;;19.07;61.45;101153.91;7388809;19;20587;-66
2022/04/13 11:15:51;;;;;;;6.55;0.60;;;;;;;19.06;60.46;101161.06;7385813;19;20625;-66
2022/04/13 11:18:21;;;;;;;1.98;0.50;;;;;;;19.09;60.46;101168.69;7385191;19;20098;-66
2022/04/13 11:21:08;;;;;;;2.40;0.50;;;;;;;19.12;60.77;101160.28;7383522;19;20015;-65
2022/04/13 11:23:54;;;;;;;2.55;0.70;;;;;;;19.17;60.28;101165.84;7385184;19;20527;-66
2022/04/13 11:26:26;;;;;;;2.33;0.50;;;;;;;19.25;60.46;101169.38;7387071;19;20021;-66
2022/04/13 11:29:17;;;;;;;2.95;0.55;;;;;;;19.33;60.06;101174.50;7383999;19;20014;-65